aviador You're here:

KABR Decoded Metar

ABERDEEN in SD, USA
Report Time2017-11-21 05:53:00
UTC Time2017-11-21 06:18:56
Flight Rules vfr VFR
Wind320° at 13 kt
W.Decomp.*RWY 31: 13.0 kt HW 0.7 kt RCW
RWY 35: 10.4 kt HW 7.8 kt LCW
W.Rank320° ranks 7
Current wind is above 320° avg. (11.4)
Visibility9999 m
Phenomena:N/A
Clouds:Few 100 Hf
Broken 120 Hf
Expected CloudBase > 3,600 ft AGL from Temp-Dew spread
Ceiling12,000 ft
Temp01°C (ISA -11)
Dew Point-8°C (51% RH)
AAT-6.6°C
QNH1008 hPa
Density Alt138 ft
Elevation1,302 ft
Report Wrong Elevation
Raw Report
KABR 210553Z AUTO 32013KT 10SM FEW100 BKN120 01/M08 A2977 RMK AO2
PK WND 32026/0510 SLP092 T00111083 10106 20006 401611072
53031=

Extra information for KABR:More info

Metar Taf Metar & Taf Last 4 Metars F.Rules Stats Wind Profile Meteogram Temp Stats Airport Information Weather charts Add Link Nearby VenuesMetar ALERT Operation Metar Decoded Social comments

AIRNAV info for KABR